55WI weather

Cranmoor Airstrip
Nekoosa, Wisconsin, United States

Public forecast

Using degrees Fahrenheit for public forecast. Weather courtesy of forecast.io.

METAR (pilot weather report)

Closest report is Alexander Field South Wood County Airport, 6.1 nm (11.3 km) ENE. Retrieved 2019/08/18 05:54 UTC (24 minutes ago):

KISW 180554Z AUTO 13006KT 10SM BKN050 19/17 A2981 RMK AO2 SLP091 T01890167 10244 20189 402780139 58011

TAF (pilot weather forecast)

Forecast is more than 12 hours old.

Closest forecast is Volk Field, 25.9 nm (47.9 km) SSW. Retrieved 2019/08/16 17:15 UTC (2 days ago):

TAF KVOK 161700Z 1617/1723 25012KT 9999 SCT015 BKN045 QNH2980INS BECMG 1622/1623 27006KT 9999 SCT040 QNH2977INS BECMG 1712/1713 17009KT 9999 FEW040 FEW250 QNH2980INS TX25/1621Z TN15/1709Z LAST NO AMDS AFT 1623 NEXT 1909